Palo Alto, CA

3:59 PM PDT on October 20, 2014 (GMT -0700)
Palo Alto Of Santa Clara County | Change Station
CLOSE
Current Station
Airport
Location: Palo Alto,
Elevation: 7 ft
Nearby Weather Stations

Elev 7 ft 37.46 °N, 122.12 °W | Updated 12 minutes ago

Overcast
Overcast
66 °F
Feels Like 66 °F
N
8
Wind Variable Wind from ESE

Today
High -- | Low -- °F
--% Chance of Precip.
Yesterday
High -- | Low -- °F
Precip. -- in
7:21 AM 6:24 PM
Waning Crescent, 8% visible
Pressure 29.98 in
Visibility 10.0 miles
Clouds Mostly Cloudy 4000 ft
Mostly Cloudy 6000 ft
Dew Point 57 °F
Humidity 73%
Rainfall 0.00 in
Snow Depth Not available.
UV 1 out of 12
Pollen 1.80 out of 12
Ozone Good
PM2.5 Good
Flu Activity Sporadic
METAR KPAO 202247Z 11007KT 10SM BKN040 BKN060 19/14 A2998

More Conditions Fewer Conditions

Pressure 29.98 in
Visibility 10.0 miles
Clouds Mostly Cloudy 4000 ft
Mostly Cloudy 6000 ft
Dew Point 57 °F
Humidity 73%
Rainfall 0.00 in
Snow Depth Not available.
UV 1 out of 12
Pollen 1.80 out of 12
Ozone Good
PM2.5 Good
Flu Activity Sporadic
METAR KPAO 202247Z 11007KT 10SM BKN040 BKN060 19/14 A2998

More Conditions Fewer Conditions

10-Day Weather Forecast

Almanac

Astronomy

Oct. 20, 2014 Rise Set
Actual Time 7:21 AM PDT 6:24 PM PDT
Civil Twilight 6:54 AM PDT 6:50 PM PDT
Nautical Twilight 6:24 AM PDT 7:21 PM PDT
Astronomical Twilight 5:54 AM PDT 7:51 PM PDT
Moon 4:18 AM PDT 4:46 PM PDT
Length of Visible Light 11h 56m
Length of Day
11h 03m
Waning Crescent, 8% of the Moon is Illuminated
Today
Waning Crescent
Oct 23
New
Oct 30
First Quarter
Nov 6
Full
Nov 14
Last Quarter

Today's Extremes

State Highs State Lows

Community

WunderPhotos

Upload Photos

1,763,541 photos uploaded!

WunderBlogs® & News

By Dr. Jeff Masters
Director of Meteorology, Weather Underground
By Kari Strenfel
Meteorologist, Weather Underground
By Christopher C. Burt
Weather Historian, Weather Underground
October 20, 2014
October 20, 2014
October 20, 2014

Nearby

Air Quality

  Air Quality AQ Index Pollutant
Yesterday Good
OZONE
Yesterday Good
PM2.5
Current Good
OZONE
Current Good
PM2.5
Monday Good
PM2.5
Tuesday Good
PM2.5
Wednesday Good
PM2.5
Thursday Good
PM2.5
Friday Good
PM2.5
Saturday Good
PM2.5

Snow Depth

Station Depth Elevation
Leavitt Lake 0 in 9400 ft
Sonora Pass 0 in 8800 ft
Burnside Lake 0 in 8139 ft
Rubicon #2 0 in 7500 ft
Leavitt Meadows 0 in 7200 ft

Earthquake Activity

City Distance Mag. Time & Date
East Foothills, California 21 miles 2.6 8:16 AM PDT
2014-10-18
Minimum magnitude displayed is 2.5.

Coastal Water Temperatures

Place Temperature
No Stations Reporting

Nearby Weather Stations